sensor_id;sensor_type;location;lat;lon;timestamp;P1;durP1;ratioP1;P2;durP2;ratioP2
505;SDS011;551;48.524;9.056;2024-01-27T00:01:34;4.17;;;2.23;;
505;SDS011;551;48.524;9.056;2024-01-27T00:04:01;3.43;;;2.10;;
505;SDS011;551;48.524;9.056;2024-01-27T00:06:26;5.23;;;2.07;;
505;SDS011;551;48.524;9.056;2024-01-27T00:08:52;2.20;;;1.80;;
505;SDS011;551;48.524;9.056;2024-01-27T00:11:17;8.90;;;3.63;;
505;SDS011;551;48.524;9.056;2024-01-27T00:13:44;2.87;;;2.67;;
505;SDS011;551;48.524;9.056;2024-01-27T00:16:10;3.30;;;2.00;;
505;SDS011;551;48.524;9.056;2024-01-27T00:18:36;5.23;;;2.23;;
505;SDS011;551;48.524;9.056;2024-01-27T00:21:02;2.70;;;2.47;;
505;SDS011;551;48.524;9.056;2024-01-27T00:23:28;3.57;;;2.03;;
505;SDS011;551;48.524;9.056;2024-01-27T00:25:54;2.20;;;2.00;;
505;SDS011;551;48.524;9.056;2024-01-27T00:28:19;6.10;;;2.67;;
505;SDS011;551;48.524;9.056;2024-01-27T00:30:45;5.53;;;2.40;;
505;SDS011;551;48.524;9.056;2024-01-27T00:33:11;2.90;;;2.20;;
505;SDS011;551;48.524;9.056;2024-01-27T00:35:37;3.50;;;2.40;;
505;SDS011;551;48.524;9.056;2024-01-27T00:38:02;6.50;;;2.33;;
505;SDS011;551;48.524;9.056;2024-01-27T00:40:28;4.57;;;1.97;;
505;SDS011;551;48.524;9.056;2024-01-27T00:42:53;5.10;;;2.47;;
505;SDS011;551;48.524;9.056;2024-01-27T00:45:19;2.13;;;1.93;;
505;SDS011;551;48.524;9.056;2024-01-27T00:47:47;2.37;;;2.20;;
505;SDS011;551;48.524;9.056;2024-01-27T00:50:14;2.90;;;2.07;;
505;SDS011;551;48.524;9.056;2024-01-27T00:52:40;2.50;;;2.23;;
505;SDS011;551;48.524;9.056;2024-01-27T00:55:05;3.43;;;1.80;;
505;SDS011;551;48.524;9.056;2024-01-27T00:57:31;2.10;;;1.70;;
505;SDS011;551;48.524;9.056;2024-01-27T00:59:57;5.60;;;2.53;;
505;SDS011;551;48.524;9.056;2024-01-27T01:02:22;3.67;;;1.93;;
505;SDS011;551;48.524;9.056;2024-01-27T01:04:48;4.17;;;2.30;;
505;SDS011;551;48.524;9.056;2024-01-27T01:07:14;4.13;;;2.37;;
505;SDS011;551;48.524;9.056;2024-01-27T01:09:39;4.10;;;2.70;;
505;SDS011;551;48.524;9.056;2024-01-27T01:12:05;4.50;;;3.20;;
505;SDS011;551;48.524;9.056;2024-01-27T01:14:30;6.03;;;3.40;;
505;SDS011;551;48.524;9.056;2024-01-27T01:16:56;3.03;;;2.73;;
505;SDS011;551;48.524;9.056;2024-01-27T01:19:21;4.70;;;3.07;;
505;SDS011;551;48.524;9.056;2024-01-27T01:21:47;3.10;;;2.80;;
505;SDS011;551;48.524;9.056;2024-01-27T01:24:12;8.83;;;3.47;;
505;SDS011;551;48.524;9.056;2024-01-27T01:26:38;9.90;;;2.83;;
505;SDS011;551;48.524;9.056;2024-01-27T01:29:04;4.57;;;3.03;;
505;SDS011;551;48.524;9.056;2024-01-27T01:31:29;3.77;;;2.77;;
505;SDS011;551;48.524;9.056;2024-01-27T01:33:55;5.23;;;3.10;;
505;SDS011;551;48.524;9.056;2024-01-27T01:36:20;5.63;;;3.00;;
505;SDS011;551;48.524;9.056;2024-01-27T01:38:46;6.13;;;3.00;;
505;SDS011;551;48.524;9.056;2024-01-27T01:41:11;5.53;;;3.10;;
505;SDS011;551;48.524;9.056;2024-01-27T01:43:37;8.27;;;3.40;;
505;SDS011;551;48.524;9.056;2024-01-27T01:46:02;8.73;;;5.13;;
505;SDS011;551;48.524;9.056;2024-01-27T01:48:28;7.60;;;3.63;;
505;SDS011;551;48.524;9.056;2024-01-27T01:50:54;9.70;;;3.67;;
505;SDS011;551;48.524;9.056;2024-01-27T01:53:19;4.17;;;2.57;;
505;SDS011;551;48.524;9.056;2024-01-27T01:55:46;5.30;;;2.93;;
505;SDS011;551;48.524;9.056;2024-01-27T01:58:11;5.40;;;3.57;;
505;SDS011;551;48.524;9.056;2024-01-27T02:00:37;4.47;;;2.60;;
505;SDS011;551;48.524;9.056;2024-01-27T02:03:02;5.83;;;3.83;;
505;SDS011;551;48.524;9.056;2024-01-27T02:05:28;7.83;;;3.30;;
505;SDS011;551;48.524;9.056;2024-01-27T02:07:54;2.67;;;2.47;;
505;SDS011;551;48.524;9.056;2024-01-27T02:10:21;5.30;;;2.90;;
505;SDS011;551;48.524;9.056;2024-01-27T02:12:47;5.70;;;2.50;;
505;SDS011;551;48.524;9.056;2024-01-27T02:15:12;4.37;;;2.47;;
505;SDS011;551;48.524;9.056;2024-01-27T02:17:39;7.60;;;2.40;;
505;SDS011;551;48.524;9.056;2024-01-27T02:20:05;6.47;;;3.07;;
505;SDS011;551;48.524;9.056;2024-01-27T02:22:35;5.03;;;2.87;;
505;SDS011;551;48.524;9.056;2024-01-27T02:25:04;2.30;;;2.10;;
505;SDS011;551;48.524;9.056;2024-01-27T02:27:30;4.70;;;3.10;;
505;SDS011;551;48.524;9.056;2024-01-27T02:29:55;9.70;;;3.20;;
505;SDS011;551;48.524;9.056;2024-01-27T02:32:21;4.50;;;2.90;;
505;SDS011;551;48.524;9.056;2024-01-27T02:34:46;5.50;;;3.17;;
505;SDS011;551;48.524;9.056;2024-01-27T02:37:12;6.70;;;2.70;;
505;SDS011;551;48.524;9.056;2024-01-27T02:39:37;3.77;;;2.67;;
505;SDS011;551;48.524;9.056;2024-01-27T02:42:05;3.50;;;2.13;;
505;SDS011;551;48.524;9.056;2024-01-27T02:44:30;3.53;;;2.57;;
505;SDS011;551;48.524;9.056;2024-01-27T02:46:56;9.90;;;3.03;;
505;SDS011;551;48.524;9.056;2024-01-27T02:49:21;3.77;;;2.73;;
505;SDS011;551;48.524;9.056;2024-01-27T02:51:47;4.30;;;2.23;;
505;SDS011;551;48.524;9.056;2024-01-27T02:54:13;7.03;;;2.20;;
505;SDS011;551;48.524;9.056;2024-01-27T02:56:38;3.73;;;2.63;;
505;SDS011;551;48.524;9.056;2024-01-27T02:59:04;4.87;;;2.60;;
505;SDS011;551;48.524;9.056;2024-01-27T03:01:29;4.80;;;2.90;;
505;SDS011;551;48.524;9.056;2024-01-27T03:03:55;4.90;;;2.57;;
505;SDS011;551;48.524;9.056;2024-01-27T03:06:20;5.40;;;2.50;;
505;SDS011;551;48.524;9.056;2024-01-27T03:08:46;4.70;;;2.83;;
505;SDS011;551;48.524;9.056;2024-01-27T03:11:12;9.40;;;2.80;;
505;SDS011;551;48.524;9.056;2024-01-27T03:13:37;4.73;;;2.57;;
505;SDS011;551;48.524;9.056;2024-01-27T03:16:09;6.47;;;2.17;;
505;SDS011;551;48.524;9.056;2024-01-27T03:18:35;5.33;;;2.77;;
505;SDS011;551;48.524;9.056;2024-01-27T03:21:02;2.43;;;2.23;;
505;SDS011;551;48.524;9.056;2024-01-27T03:23:28;3.07;;;2.80;;
505;SDS011;551;48.524;9.056;2024-01-27T03:25:53;5.03;;;2.37;;
505;SDS011;551;48.524;9.056;2024-01-27T03:28:19;5.20;;;2.33;;
505;SDS011;551;48.524;9.056;2024-01-27T03:30:45;2.70;;;2.50;;
505;SDS011;551;48.524;9.056;2024-01-27T03:33:10;3.40;;;2.27;;
505;SDS011;551;48.524;9.056;2024-01-27T03:35:37;2.90;;;2.50;;
505;SDS011;551;48.524;9.056;2024-01-27T03:38:05;6.93;;;2.83;;
505;SDS011;551;48.524;9.056;2024-01-27T03:40:30;2.87;;;2.60;;
505;SDS011;551;48.524;9.056;2024-01-27T03:42:56;5.37;;;1.97;;
505;SDS011;551;48.524;9.056;2024-01-27T03:45:21;2.57;;;2.33;;
505;SDS011;551;48.524;9.056;2024-01-27T03:47:47;3.73;;;2.30;;
505;SDS011;551;48.524;9.056;2024-01-27T03:50:12;2.90;;;2.50;;
505;SDS011;551;48.524;9.056;2024-01-27T03:52:38;2.90;;;2.33;;
505;SDS011;551;48.524;9.056;2024-01-27T03:55:03;2.80;;;2.60;;
505;SDS011;551;48.524;9.056;2024-01-27T03:57:30;3.43;;;2.30;;
505;SDS011;551;48.524;9.056;2024-01-27T03:59:56;2.73;;;2.53;;
505;SDS011;551;48.524;9.056;2024-01-27T04:02:21;3.60;;;2.60;;
505;SDS011;551;48.524;9.056;2024-01-27T04:04:47;2.60;;;2.30;;
505;SDS011;551;48.524;9.056;2024-01-27T04:07:13;4.10;;;2.70;;
505;SDS011;551;48.524;9.056;2024-01-27T04:09:38;6.23;;;3.07;;
505;SDS011;551;48.524;9.056;2024-01-27T04:12:04;4.67;;;2.67;;
505;SDS011;551;48.524;9.056;2024-01-27T04:14:29;4.30;;;3.67;;
505;SDS011;551;48.524;9.056;2024-01-27T04:16:55;5.83;;;3.60;;
505;SDS011;551;48.524;9.056;2024-01-27T04:19:20;4.33;;;3.83;;
505;SDS011;551;48.524;9.056;2024-01-27T04:21:46;3.50;;;3.20;;
505;SDS011;551;48.524;9.056;2024-01-27T04:24:12;8.97;;;3.33;;
505;SDS011;551;48.524;9.056;2024-01-27T04:26:37;4.70;;;3.50;;
505;SDS011;551;48.524;9.056;2024-01-27T04:29:03;4.80;;;3.47;;
505;SDS011;551;48.524;9.056;2024-01-27T04:31:28;5.80;;;4.07;;
505;SDS011;551;48.524;9.056;2024-01-27T04:33:56;8.00;;;4.07;;
505;SDS011;551;48.524;9.056;2024-01-27T04:36:28;4.03;;;3.63;;
505;SDS011;551;48.524;9.056;2024-01-27T04:38:54;8.30;;;3.93;;
505;SDS011;551;48.524;9.056;2024-01-27T04:41:20;6.63;;;3.50;;
505;SDS011;551;48.524;9.056;2024-01-27T04:43:45;6.53;;;4.50;;
505;SDS011;551;48.524;9.056;2024-01-27T04:46:11;8.53;;;4.13;;
505;SDS011;551;48.524;9.056;2024-01-27T04:48:36;6.10;;;4.10;;
505;SDS011;551;48.524;9.056;2024-01-27T04:51:02;5.00;;;3.67;;
505;SDS011;551;48.524;9.056;2024-01-27T04:53:28;10.13;;;3.97;;
505;SDS011;551;48.524;9.056;2024-01-27T04:55:53;9.37;;;4.90;;
505;SDS011;551;48.524;9.056;2024-01-27T04:58:19;6.90;;;5.10;;
505;SDS011;551;48.524;9.056;2024-01-27T05:00:44;7.47;;;3.93;;
505;SDS011;551;48.524;9.056;2024-01-27T05:03:09;5.80;;;3.97;;
505;SDS011;551;48.524;9.056;2024-01-27T05:05:40;6.77;;;4.10;;
505;SDS011;551;48.524;9.056;2024-01-27T05:08:07;5.27;;;3.50;;
505;SDS011;551;48.524;9.056;2024-01-27T05:10:32;5.00;;;3.53;;
505;SDS011;551;48.524;9.056;2024-01-27T05:12:58;8.20;;;4.27;;
505;SDS011;551;48.524;9.056;2024-01-27T05:15:24;5.33;;;3.60;;
505;SDS011;551;48.524;9.056;2024-01-27T05:17:50;13.40;;;4.13;;
505;SDS011;551;48.524;9.056;2024-01-27T05:20:15;4.93;;;3.60;;
505;SDS011;551;48.524;9.056;2024-01-27T05:22:42;11.03;;;3.97;;
505;SDS011;551;48.524;9.056;2024-01-27T05:25:07;4.57;;;3.10;;
505;SDS011;551;48.524;9.056;2024-01-27T05:27:33;4.20;;;3.50;;
505;SDS011;551;48.524;9.056;2024-01-27T05:29:58;14.40;;;3.00;;
505;SDS011;551;48.524;9.056;2024-01-27T05:32:24;7.40;;;3.30;;
505;SDS011;551;48.524;9.056;2024-01-27T05:34:49;9.77;;;3.60;;
505;SDS011;551;48.524;9.056;2024-01-27T05:37:15;3.70;;;2.90;;
505;SDS011;551;48.524;9.056;2024-01-27T05:39:40;15.73;;;3.97;;
505;SDS011;551;48.524;9.056;2024-01-27T05:42:06;5.47;;;3.10;;
505;SDS011;551;48.524;9.056;2024-01-27T05:44:31;8.20;;;3.70;;
505;SDS011;551;48.524;9.056;2024-01-27T05:46:57;5.77;;;4.17;;
505;SDS011;551;48.524;9.056;2024-01-27T05:49:23;8.83;;;4.00;;
505;SDS011;551;48.524;9.056;2024-01-27T05:51:51;4.23;;;3.80;;
505;SDS011;551;48.524;9.056;2024-01-27T05:54:17;15.23;;;4.73;;
505;SDS011;551;48.524;9.056;2024-01-27T05:56:42;4.30;;;3.90;;
505;SDS011;551;48.524;9.056;2024-01-27T05:59:08;6.23;;;4.73;;
505;SDS011;551;48.524;9.056;2024-01-27T06:01:33;5.87;;;4.00;;
505;SDS011;551;48.524;9.056;2024-01-27T06:03:59;8.07;;;4.40;;
505;SDS011;551;48.524;9.056;2024-01-27T06:06:24;5.63;;;3.87;;
505;SDS011;551;48.524;9.056;2024-01-27T06:08:50;8.53;;;6.10;;
505;SDS011;551;48.524;9.056;2024-01-27T06:11:22;5.17;;;3.60;;
505;SDS011;551;48.524;9.056;2024-01-27T06:13:49;6.03;;;3.53;;
505;SDS011;551;48.524;9.056;2024-01-27T06:16:15;7.43;;;5.00;;
505;SDS011;551;48.524;9.056;2024-01-27T06:18:42;6.70;;;3.87;;
505;SDS011;551;48.524;9.056;2024-01-27T06:21:07;9.17;;;4.90;;
505;SDS011;551;48.524;9.056;2024-01-27T06:23:33;5.83;;;4.57;;
505;SDS011;551;48.524;9.056;2024-01-27T06:25:59;9.90;;;4.40;;
505;SDS011;551;48.524;9.056;2024-01-27T06:28:28;17.17;;;5.30;;
505;SDS011;551;48.524;9.056;2024-01-27T06:30:54;6.87;;;4.10;;
505;SDS011;551;48.524;9.056;2024-01-27T06:33:20;6.17;;;4.10;;
505;SDS011;551;48.524;9.056;2024-01-27T06:35:45;6.97;;;3.63;;
505;SDS011;551;48.524;9.056;2024-01-27T06:38:11;10.13;;;4.53;;
505;SDS011;551;48.524;9.056;2024-01-27T06:40:36;27.07;;;7.80;;
505;SDS011;551;48.524;9.056;2024-01-27T06:43:02;21.20;;;5.10;;
505;SDS011;551;48.524;9.056;2024-01-27T06:45:27;30.13;;;6.97;;
505;SDS011;551;48.524;9.056;2024-01-27T06:47:53;22.17;;;6.73;;
505;SDS011;551;48.524;9.056;2024-01-27T06:50:18;35.27;;;7.00;;
505;SDS011;551;48.524;9.056;2024-01-27T06:52:44;30.80;;;6.83;;
505;SDS011;551;48.524;9.056;2024-01-27T06:55:11;16.07;;;7.20;;
505;SDS011;551;48.524;9.056;2024-01-27T06:57:36;27.97;;;6.20;;
505;SDS011;551;48.524;9.056;2024-01-27T07:00:02;14.97;;;5.53;;
505;SDS011;551;48.524;9.056;2024-01-27T07:02:28;17.47;;;6.00;;
505;SDS011;551;48.524;9.056;2024-01-27T07:04:53;11.87;;;5.53;;
505;SDS011;551;48.524;9.056;2024-01-27T07:07:21;9.90;;;6.17;;
505;SDS011;551;48.524;9.056;2024-01-27T07:09:49;10.93;;;5.40;;
505;SDS011;551;48.524;9.056;2024-01-27T07:12:15;11.53;;;5.97;;
505;SDS011;551;48.524;9.056;2024-01-27T07:14:40;12.77;;;5.40;;
505;SDS011;551;48.524;9.056;2024-01-27T07:17:06;13.70;;;5.93;;
505;SDS011;551;48.524;9.056;2024-01-27T07:19:31;17.53;;;5.90;;
505;SDS011;551;48.524;9.056;2024-01-27T07:21:57;14.83;;;6.27;;
505;SDS011;551;48.524;9.056;2024-01-27T07:24:24;12.17;;;5.13;;
505;SDS011;551;48.524;9.056;2024-01-27T07:26:50;8.67;;;6.00;;
505;SDS011;551;48.524;9.056;2024-01-27T07:29:16;19.43;;;6.90;;
505;SDS011;551;48.524;9.056;2024-01-27T07:31:41;11.93;;;5.97;;
505;SDS011;551;48.524;9.056;2024-01-27T07:34:07;9.97;;;6.30;;
505;SDS011;551;48.524;9.056;2024-01-27T07:36:32;10.80;;;5.87;;
505;SDS011;551;48.524;9.056;2024-01-27T07:38:58;17.63;;;5.87;;
505;SDS011;551;48.524;9.056;2024-01-27T07:41:24;22.87;;;7.37;;
505;SDS011;551;48.524;9.056;2024-01-27T07:43:49;20.70;;;6.77;;
505;SDS011;551;48.524;9.056;2024-01-27T07:46:15;9.80;;;5.90;;
505;SDS011;551;48.524;9.056;2024-01-27T07:48:40;16.00;;;7.30;;
505;SDS011;551;48.524;9.056;2024-01-27T07:51:06;17.27;;;6.13;;
505;SDS011;551;48.524;9.056;2024-01-27T07:53:32;14.43;;;6.50;;
505;SDS011;551;48.524;9.056;2024-01-27T07:55:58;14.67;;;6.77;;
505;SDS011;551;48.524;9.056;2024-01-27T07:58:24;33.00;;;7.93;;
505;SDS011;551;48.524;9.056;2024-01-27T08:00:49;28.50;;;7.37;;
505;SDS011;551;48.524;9.056;2024-01-27T08:03:15;15.10;;;6.93;;
505;SDS011;551;48.524;9.056;2024-01-27T08:05:41;19.63;;;7.70;;
505;SDS011;551;48.524;9.056;2024-01-27T08:08:06;18.07;;;7.53;;
505;SDS011;551;48.524;9.056;2024-01-27T08:10:32;23.47;;;7.20;;
505;SDS011;551;48.524;9.056;2024-01-27T08:12:57;30.97;;;7.10;;
505;SDS011;551;48.524;9.056;2024-01-27T08:15:23;15.33;;;6.57;;
505;SDS011;551;48.524;9.056;2024-01-27T08:17:48;47.77;;;8.93;;
505;SDS011;551;48.524;9.056;2024-01-27T08:20:14;43.40;;;7.57;;
505;SDS011;551;48.524;9.056;2024-01-27T08:22:39;73.67;;;8.07;;
505;SDS011;551;48.524;9.056;2024-01-27T08:25:05;66.67;;;7.80;;
505;SDS011;551;48.524;9.056;2024-01-27T08:27:31;31.17;;;6.47;;
505;SDS011;551;48.524;9.056;2024-01-27T08:29:56;20.70;;;5.43;;
505;SDS011;551;48.524;9.056;2024-01-27T08:32:22;33.57;;;6.50;;
505;SDS011;551;48.524;9.056;2024-01-27T08:34:47;35.50;;;6.90;;
505;SDS011;551;48.524;9.056;2024-01-27T08:37:14;20.63;;;5.07;;
505;SDS011;551;48.524;9.056;2024-01-27T08:39:41;49.73;;;7.00;;
505;SDS011;551;48.524;9.056;2024-01-27T08:42:07;16.33;;;6.30;;
505;SDS011;551;48.524;9.056;2024-01-27T08:44:32;24.27;;;7.00;;
505;SDS011;551;48.524;9.056;2024-01-27T08:46:58;32.43;;;7.17;;
505;SDS011;551;48.524;9.056;2024-01-27T08:49:23;25.60;;;6.37;;
505;SDS011;551;48.524;9.056;2024-01-27T08:51:49;46.90;;;7.67;;
505;SDS011;551;48.524;9.056;2024-01-27T08:54:14;60.37;;;7.33;;
505;SDS011;551;48.524;9.056;2024-01-27T08:56:40;9.10;;;5.37;;
505;SDS011;551;48.524;9.056;2024-01-27T08:59:06;26.60;;;6.87;;
505;SDS011;551;48.524;9.056;2024-01-27T09:01:31;60.40;;;8.33;;
505;SDS011;551;48.524;9.056;2024-01-27T09:03:57;42.60;;;7.50;;
505;SDS011;551;48.524;9.056;2024-01-27T09:06:22;14.13;;;5.50;;
505;SDS011;551;48.524;9.056;2024-01-27T09:08:48;24.83;;;6.03;;
505;SDS011;551;48.524;9.056;2024-01-27T09:11:13;10.27;;;5.20;;
505;SDS011;551;48.524;9.056;2024-01-27T09:13:39;16.40;;;5.47;;
505;SDS011;551;48.524;9.056;2024-01-27T09:16:04;28.07;;;5.93;;
505;SDS011;551;48.524;9.056;2024-01-27T09:18:30;25.63;;;6.30;;
505;SDS011;551;48.524;9.056;2024-01-27T09:20:56;11.43;;;4.67;;
505;SDS011;551;48.524;9.056;2024-01-27T09:23:21;10.37;;;5.17;;
505;SDS011;551;48.524;9.056;2024-01-27T09:25:47;25.37;;;6.40;;
505;SDS011;551;48.524;9.056;2024-01-27T09:28:13;26.47;;;6.00;;
505;SDS011;551;48.524;9.056;2024-01-27T09:30:39;18.67;;;6.20;;
505;SDS011;551;48.524;9.056;2024-01-27T09:33:05;21.40;;;7.23;;
505;SDS011;551;48.524;9.056;2024-01-27T09:35:30;34.03;;;7.10;;
505;SDS011;551;48.524;9.056;2024-01-27T09:37:56;25.33;;;7.10;;
505;SDS011;551;48.524;9.056;2024-01-27T09:40:21;21.37;;;6.47;;
505;SDS011;551;48.524;9.056;2024-01-27T09:42:50;9.97;;;6.20;;
505;SDS011;551;48.524;9.056;2024-01-27T09:45:17;15.80;;;6.23;;
505;SDS011;551;48.524;9.056;2024-01-27T09:47:45;8.90;;;5.43;;
505;SDS011;551;48.524;9.056;2024-01-27T09:50:11;12.27;;;6.07;;
505;SDS011;551;48.524;9.056;2024-01-27T09:52:37;9.33;;;6.50;;
505;SDS011;551;48.524;9.056;2024-01-27T09:55:03;15.73;;;5.53;;
505;SDS011;551;48.524;9.056;2024-01-27T09:57:29;10.00;;;6.30;;
505;SDS011;551;48.524;9.056;2024-01-27T09:59:55;8.73;;;5.20;;
505;SDS011;551;48.524;9.056;2024-01-27T10:02:22;9.33;;;4.53;;
505;SDS011;551;48.524;9.056;2024-01-27T10:04:50;8.97;;;5.03;;
505;SDS011;551;48.524;9.056;2024-01-27T10:07:16;14.87;;;5.20;;
505;SDS011;551;48.524;9.056;2024-01-27T10:09:42;7.93;;;5.20;;
505;SDS011;551;48.524;9.056;2024-01-27T10:12:08;40.50;;;7.03;;
505;SDS011;551;48.524;9.056;2024-01-27T10:14:40;6.83;;;5.00;;
505;SDS011;551;48.524;9.056;2024-01-27T10:17:13;15.97;;;4.93;;
505;SDS011;551;48.524;9.056;2024-01-27T10:20:02;10.07;;;5.17;;
505;SDS011;551;48.524;9.056;2024-01-27T10:22:36;10.90;;;6.10;;
505;SDS011;551;48.524;9.056;2024-01-27T10:25:08;6.40;;;5.73;;
505;SDS011;551;48.524;9.056;2024-01-27T10:27:34;6.97;;;5.40;;
505;SDS011;551;48.524;9.056;2024-01-27T10:30:00;9.57;;;5.30;;
505;SDS011;551;48.524;9.056;2024-01-27T10:32:26;7.87;;;5.07;;
505;SDS011;551;48.524;9.056;2024-01-27T10:35:01;6.47;;;5.10;;
505;SDS011;551;48.524;9.056;2024-01-27T10:37:27;9.43;;;5.53;;
505;SDS011;551;48.524;9.056;2024-01-27T10:40:00;8.10;;;5.47;;
505;SDS011;551;48.524;9.056;2024-01-27T10:42:27;7.70;;;5.30;;
505;SDS011;551;48.524;9.056;2024-01-27T10:44:55;8.00;;;7.20;;
505;SDS011;551;48.524;9.056;2024-01-27T10:47:26;10.73;;;5.93;;
505;SDS011;551;48.524;9.056;2024-01-27T10:49:54;8.33;;;6.23;;
505;SDS011;551;48.524;9.056;2024-01-27T10:52:24;11.10;;;5.83;;
505;SDS011;551;48.524;9.056;2024-01-27T10:54:55;14.80;;;5.80;;
505;SDS011;551;48.524;9.056;2024-01-27T10:57:26;7.47;;;6.07;;
505;SDS011;551;48.524;9.056;2024-01-27T10:59:52;6.97;;;5.50;;
505;SDS011;551;48.524;9.056;2024-01-27T11:02:20;9.20;;;6.40;;
505;SDS011;551;48.524;9.056;2024-01-27T11:04:47;9.10;;;5.70;;
505;SDS011;551;48.524;9.056;2024-01-27T11:07:14;11.27;;;7.03;;
505;SDS011;551;48.524;9.056;2024-01-27T11:09:41;7.97;;;6.77;;
505;SDS011;551;48.524;9.056;2024-01-27T11:12:07;12.47;;;6.97;;
505;SDS011;551;48.524;9.056;2024-01-27T11:14:34;7.23;;;6.00;;
505;SDS011;551;48.524;9.056;2024-01-27T11:16:59;8.20;;;5.87;;
505;SDS011;551;48.524;9.056;2024-01-27T11:19:25;7.33;;;5.10;;
505;SDS011;551;48.524;9.056;2024-01-27T11:22:01;8.13;;;6.00;;
505;SDS011;551;48.524;9.056;2024-01-27T11:24:28;8.33;;;6.20;;
505;SDS011;551;48.524;9.056;2024-01-27T11:27:03;8.10;;;6.17;;
505;SDS011;551;48.524;9.056;2024-01-27T11:29:30;6.80;;;6.20;;
505;SDS011;551;48.524;9.056;2024-01-27T11:32:00;7.57;;;6.80;;
505;SDS011;551;48.524;9.056;2024-01-27T11:34:45;9.27;;;6.53;;
505;SDS011;551;48.524;9.056;2024-01-27T11:37:12;8.50;;;6.13;;
505;SDS011;551;48.524;9.056;2024-01-27T11:39:42;9.07;;;7.37;;
505;SDS011;551;48.524;9.056;2024-01-27T11:42:11;8.03;;;6.43;;
505;SDS011;551;48.524;9.056;2024-01-27T11:44:38;7.03;;;6.13;;
505;SDS011;551;48.524;9.056;2024-01-27T11:47:17;9.37;;;6.43;;
505;SDS011;551;48.524;9.056;2024-01-27T11:49:48;9.60;;;6.77;;
505;SDS011;551;48.524;9.056;2024-01-27T11:52:20;11.93;;;6.90;;
505;SDS011;551;48.524;9.056;2024-01-27T11:54:53;10.90;;;8.77;;
505;SDS011;551;48.524;9.056;2024-01-27T11:57:25;8.70;;;7.23;;
505;SDS011;551;48.524;9.056;2024-01-27T11:59:51;11.90;;;6.57;;
505;SDS011;551;48.524;9.056;2024-01-27T12:02:18;4.90;;;4.50;;
505;SDS011;551;48.524;9.056;2024-01-27T12:04:43;9.33;;;5.93;;
505;SDS011;551;48.524;9.056;2024-01-27T12:07:09;9.50;;;5.57;;
505;SDS011;551;48.524;9.056;2024-01-27T12:09:38;20.43;;;9.23;;
505;SDS011;551;48.524;9.056;2024-01-27T12:12:04;19.53;;;9.47;;
505;SDS011;551;48.524;9.056;2024-01-27T12:17:07;15.00;;;10.10;;
505;SDS011;551;48.524;9.056;2024-01-27T12:19:35;16.70;;;10.50;;
505;SDS011;551;48.524;9.056;2024-01-27T12:22:01;12.90;;;8.90;;
505;SDS011;551;48.524;9.056;2024-01-27T12:24:27;15.03;;;9.07;;
505;SDS011;551;48.524;9.056;2024-01-27T12:26:52;19.50;;;10.40;;
505;SDS011;551;48.524;9.056;2024-01-27T12:29:20;16.40;;;9.03;;
505;SDS011;551;48.524;9.056;2024-01-27T12:31:46;20.23;;;9.67;;
505;SDS011;551;48.524;9.056;2024-01-27T12:34:12;20.37;;;9.20;;
505;SDS011;551;48.524;9.056;2024-01-27T12:36:40;15.73;;;9.20;;
505;SDS011;551;48.524;9.056;2024-01-27T12:39:09;15.23;;;10.43;;
505;SDS011;551;48.524;9.056;2024-01-27T12:41:35;13.93;;;8.83;;
505;SDS011;551;48.524;9.056;2024-01-27T12:44:01;16.80;;;10.73;;
505;SDS011;551;48.524;9.056;2024-01-27T12:46:27;18.40;;;11.17;;
505;SDS011;551;48.524;9.056;2024-01-27T12:48:53;23.77;;;11.03;;
505;SDS011;551;48.524;9.056;2024-01-27T12:51:19;16.27;;;10.10;;
505;SDS011;551;48.524;9.056;2024-01-27T12:53:45;13.13;;;8.20;;
505;SDS011;551;48.524;9.056;2024-01-27T12:56:11;12.20;;;8.40;;
505;SDS011;551;48.524;9.056;2024-01-27T12:58:39;16.80;;;10.27;;
505;SDS011;551;48.524;9.056;2024-01-27T13:01:05;14.63;;;8.63;;
505;SDS011;551;48.524;9.056;2024-01-27T13:03:32;19.03;;;11.30;;
505;SDS011;551;48.524;9.056;2024-01-27T13:05:57;18.50;;;10.80;;
505;SDS011;551;48.524;9.056;2024-01-27T13:08:23;22.07;;;12.30;;
505;SDS011;551;48.524;9.056;2024-01-27T13:10:49;25.30;;;12.40;;
505;SDS011;551;48.524;9.056;2024-01-27T13:13:15;19.93;;;13.77;;
505;SDS011;551;48.524;9.056;2024-01-27T13:15:41;18.93;;;12.30;;
505;SDS011;551;48.524;9.056;2024-01-27T13:18:07;25.00;;;12.10;;
505;SDS011;551;48.524;9.056;2024-01-27T13:20:32;13.70;;;9.90;;
505;SDS011;551;48.524;9.056;2024-01-27T13:22:58;13.50;;;8.47;;
505;SDS011;551;48.524;9.056;2024-01-27T13:25:24;12.83;;;8.50;;
505;SDS011;551;48.524;9.056;2024-01-27T13:27:50;14.20;;;8.70;;
505;SDS011;551;48.524;9.056;2024-01-27T13:30:15;11.33;;;7.77;;
505;SDS011;551;48.524;9.056;2024-01-27T13:32:42;8.63;;;7.10;;
505;SDS011;551;48.524;9.056;2024-01-27T13:35:08;12.13;;;9.60;;
505;SDS011;551;48.524;9.056;2024-01-27T13:37:33;16.90;;;10.03;;
505;SDS011;551;48.524;9.056;2024-01-27T13:40:00;15.17;;;10.80;;
505;SDS011;551;48.524;9.056;2024-01-27T13:42:25;24.53;;;13.63;;
505;SDS011;551;48.524;9.056;2024-01-27T13:44:51;27.63;;;16.00;;
505;SDS011;551;48.524;9.056;2024-01-27T13:47:17;34.10;;;20.70;;
505;SDS011;551;48.524;9.056;2024-01-27T13:49:42;40.93;;;22.83;;
505;SDS011;551;48.524;9.056;2024-01-27T13:52:09;35.43;;;22.20;;
505;SDS011;551;48.524;9.056;2024-01-27T13:54:34;37.87;;;23.37;;
505;SDS011;551;48.524;9.056;2024-01-27T13:57:01;42.17;;;25.53;;
505;SDS011;551;48.524;9.056;2024-01-27T13:59:27;48.30;;;26.10;;
505;SDS011;551;48.524;9.056;2024-01-27T14:01:53;38.30;;;20.60;;
505;SDS011;551;48.524;9.056;2024-01-27T14:04:18;35.57;;;22.03;;
505;SDS011;551;48.524;9.056;2024-01-27T14:06:45;41.37;;;22.50;;
505;SDS011;551;48.524;9.056;2024-01-27T14:09:10;35.63;;;22.63;;
505;SDS011;551;48.524;9.056;2024-01-27T14:11:38;31.40;;;20.50;;
505;SDS011;551;48.524;9.056;2024-01-27T14:14:03;34.87;;;20.40;;
505;SDS011;551;48.524;9.056;2024-01-27T14:16:29;36.30;;;20.73;;
505;SDS011;551;48.524;9.056;2024-01-27T14:18:54;35.60;;;21.37;;
505;SDS011;551;48.524;9.056;2024-01-27T14:21:20;24.43;;;16.37;;
505;SDS011;551;48.524;9.056;2024-01-27T14:23:46;27.83;;;16.90;;
505;SDS011;551;48.524;9.056;2024-01-27T14:26:11;24.20;;;13.70;;
505;SDS011;551;48.524;9.056;2024-01-27T14:28:42;24.70;;;14.93;;
505;SDS011;551;48.524;9.056;2024-01-27T14:31:09;17.93;;;12.60;;
505;SDS011;551;48.524;9.056;2024-01-27T14:33:35;26.60;;;14.90;;
505;SDS011;551;48.524;9.056;2024-01-27T14:36:01;27.07;;;16.63;;
505;SDS011;551;48.524;9.056;2024-01-27T14:38:26;22.50;;;16.57;;
505;SDS011;551;48.524;9.056;2024-01-27T14:40:52;24.70;;;15.00;;
505;SDS011;551;48.524;9.056;2024-01-27T14:43:17;20.30;;;13.00;;
505;SDS011;551;48.524;9.056;2024-01-27T14:45:46;22.03;;;13.33;;
505;SDS011;551;48.524;9.056;2024-01-27T14:48:12;21.90;;;14.07;;
505;SDS011;551;48.524;9.056;2024-01-27T14:50:38;21.63;;;13.70;;
505;SDS011;551;48.524;9.056;2024-01-27T14:53:04;23.43;;;15.20;;
505;SDS011;551;48.524;9.056;2024-01-27T14:55:31;27.93;;;14.17;;
505;SDS011;551;48.524;9.056;2024-01-27T14:57:58;25.10;;;14.40;;
505;SDS011;551;48.524;9.056;2024-01-27T15:00:23;24.77;;;13.37;;
505;SDS011;551;48.524;9.056;2024-01-27T15:02:49;23.50;;;15.23;;
505;SDS011;551;48.524;9.056;2024-01-27T15:05:14;25.60;;;13.83;;
505;SDS011;551;48.524;9.056;2024-01-27T15:07:40;20.33;;;12.67;;
505;SDS011;551;48.524;9.056;2024-01-27T15:10:06;25.63;;;13.47;;
505;SDS011;551;48.524;9.056;2024-01-27T15:12:32;13.77;;;9.60;;
505;SDS011;551;48.524;9.056;2024-01-27T15:14:58;17.07;;;10.83;;
505;SDS011;551;48.524;9.056;2024-01-27T15:17:23;20.70;;;11.50;;
505;SDS011;551;48.524;9.056;2024-01-27T15:19:49;12.03;;;8.77;;
505;SDS011;551;48.524;9.056;2024-01-27T15:22:16;23.30;;;11.43;;
505;SDS011;551;48.524;9.056;2024-01-27T15:24:42;13.17;;;9.30;;
505;SDS011;551;48.524;9.056;2024-01-27T15:27:08;16.00;;;10.40;;
505;SDS011;551;48.524;9.056;2024-01-27T15:29:33;21.57;;;10.10;;
505;SDS011;551;48.524;9.056;2024-01-27T15:31:59;18.47;;;12.10;;